Time;durP1;ratioP1;P1;durP2;ratioP2;P2;SDS_P1;SDS_P2;PMS_P1;PMS_P2;Temp;Humidity;BMP_temperature;BMP_pressure;BME280_temperature;BME280_humidity;BME280_pressure;Samples;Min_cycle;Max_cycle;Signal;HPM_P1;HPM_P2
2022/04/11 00:01:10;;;;;;;14.40;3.95;;;;;;;2.61;67.08;100593.05;2074075;85;27677;-61
2022/04/11 00:04:12;;;;;;;14.23;3.87;;;;;;;2.56;67.28;100594.89;2091868;85;29483;-61
2022/04/11 00:07:14;;;;;;;11.95;4.10;;;;;;;2.53;67.40;100591.81;2080625;85;31849;-61
2022/04/11 00:10:17;;;;;;;6.15;2.52;;;;;;;2.52;67.51;100594.03;2095603;84;34137;-61
2022/04/11 00:13:19;;;;;;;11.10;3.33;;;;;;;2.49;67.70;100591.42;2096050;84;29423;-61
2022/04/11 00:16:21;;;;;;;7.85;2.67;;;;;;;2.47;67.62;100594.55;2074441;84;27751;-63
2022/04/11 00:19:23;;;;;;;7.30;2.67;;;;;;;2.42;67.57;100589.75;2107290;84;28905;-61
2022/04/11 00:22:25;;;;;;;7.65;2.42;;;;;;;2.36;67.56;100592.03;2083471;84;31034;-63
2022/04/11 00:25:28;;;;;;;8.35;2.80;;;;;;;2.32;67.65;100597.38;2074229;85;33360;-61
2022/04/11 00:28:29;;;;;;;8.58;2.77;;;;;;;2.30;67.73;100601.34;2075299;84;30121;-63
2022/04/11 00:31:31;;;;;;;7.12;3.40;;;;;;;2.28;68.03;100602.69;2107743;84;28446;-63
2022/04/11 00:34:33;;;;;;;7.30;3.72;;;;;;;2.28;68.13;100593.44;2082557;84;29114;-61
2022/04/11 00:37:37;;;;;;;8.35;3.35;;;;;;;2.32;68.23;100594.73;2074672;85;31989;-66
2022/04/11 00:40:39;;;;;;;6.42;2.75;;;;;;;2.34;68.30;100602.17;2078514;84;33134;-62
2022/04/11 00:43:42;;;;;;;8.28;2.92;;;;;;;2.35;68.35;100603.49;2107418;84;29782;-62
2022/04/11 00:46:43;;;;;;;7.50;3.10;;;;;;;2.35;68.25;100603.49;2080337;84;27595;-64
2022/04/11 00:49:45;;;;;;;8.00;3.02;;;;;;;2.31;68.20;100600.45;2089800;84;28732;-65
2022/04/11 00:52:51;;;;;;;8.55;3.52;;;;;;;2.28;68.15;100610.62;2101930;84;30945;-62
2022/04/11 00:55:55;;;;;;;8.90;3.40;;;;;;;2.22;68.20;100611.98;2074226;85;32966;-61
2022/04/11 00:59:02;;;;;;;7.45;3.27;;;;;;;2.15;68.25;100609.00;2071596;84;29872;-60
2022/04/11 01:02:05;;;;;;;5.72;3.05;;;;;;;2.08;68.30;100613.89;2072692;85;27682;-66
2022/04/11 01:05:11;;;;;;;5.55;3.08;;;;;;;2.02;68.27;100616.58;2082243;84;28664;-63
2022/04/11 01:08:13;;;;;;;5.53;2.90;;;;;;;1.94;68.38;100618.88;2083843;84;31871;-66
2022/04/11 01:11:15;;;;;;;12.05;3.62;;;;;;;1.87;68.46;100615.84;2107056;84;33301;-61
2022/04/11 01:14:18;;;;;;;7.85;3.77;;;;;;;1.80;68.55;100624.26;2107296;84;29719;-61
2022/04/11 01:17:19;;;;;;;11.10;3.17;;;;;;;1.76;68.69;100629.59;2093258;84;27724;-61
2022/04/11 01:20:21;;;;;;;8.45;4.08;;;;;;;1.69;68.65;100627.44;2070211;85;28604;-60
2022/04/11 01:23:23;;;;;;;9.95;4.62;;;;;;;1.64;68.66;100631.88;2092524;85;31067;-60
2022/04/11 01:26:27;;;;;;;8.20;4.25;;;;;;;1.56;68.69;100630.61;2077223;85;33140;-61
2022/04/11 01:29:29;;;;;;;16.65;4.90;;;;;;;1.51;68.76;100633.72;2069273;86;30139;-62
2022/04/11 01:32:30;;;;;;;9.85;4.50;;;;;;;1.45;68.73;100639.92;2071452;85;27696;-61
2022/04/11 01:35:32;;;;;;;11.22;4.92;;;;;;;1.39;68.80;100642.62;2092469;85;29042;-63
2022/04/11 01:38:34;;;;;;;12.60;4.10;;;;;;;1.32;68.80;100642.20;2074601;85;33210;-61
2022/04/11 01:41:35;;;;;;;10.45;4.20;;;;;;;1.26;68.87;100639.59;2069845;86;33057;-62
2022/04/11 01:44:37;;;;;;;16.55;4.58;;;;;;;1.20;68.85;100643.15;2069541;86;29716;-63
2022/04/11 01:47:41;;;;;;;9.30;4.30;;;;;;;1.15;68.88;100640.55;2070243;86;27723;-61
2022/04/11 01:50:42;;;;;;;8.85;4.37;;;;;;;1.09;69.11;100634.42;2071868;85;29742;-61
2022/04/11 01:53:44;;;;;;;10.63;4.08;;;;;;;1.03;69.12;100641.47;2071318;86;31590;-62
2022/04/11 01:56:46;;;;;;;8.45;4.83;;;;;;;1.00;69.27;100645.90;2059926;85;33305;-61
2022/04/11 01:59:47;;;;;;;10.25;4.65;;;;;;;0.98;69.47;100645.92;2051124;86;29343;-64
2022/04/11 02:02:49;;;;;;;8.58;4.80;;;;;;;0.96;69.48;100651.64;2051074;86;27767;-64
2022/04/11 02:05:51;;;;;;;11.12;5.25;;;;;;;0.93;69.54;100647.69;2050119;86;28457;-62
2022/04/11 02:08:52;;;;;;;8.98;5.40;;;;;;;0.92;69.59;100651.20;2050328;86;31750;-64
2022/04/11 02:11:54;;;;;;;13.03;6.00;;;;;;;0.90;69.59;100647.70;2050387;86;34364;-60
2022/04/11 02:14:56;;;;;;;11.38;5.92;;;;;;;0.87;69.66;100649.92;2049937;86;29968;-61
2022/04/11 02:17:58;;;;;;;11.88;6.40;;;;;;;0.84;69.70;100651.66;2051334;86;27681;-66
2022/04/11 02:20:59;;;;;;;13.83;6.47;;;;;;;0.81;69.81;100658.30;2054573;86;28717;-61
2022/04/11 02:24:01;;;;;;;12.07;6.08;;;;;;;0.77;69.84;100659.18;2054478;86;30819;-65
2022/04/11 02:27:04;;;;;;;14.65;6.33;;;;;;;0.73;69.87;100659.19;2055248;86;34094;-63
2022/04/11 02:30:07;;;;;;;9.20;5.72;;;;;;;0.71;69.95;100664.04;2054011;86;30445;-61
2022/04/11 02:33:09;;;;;;;10.95;6.47;;;;;;;0.66;70.01;100662.75;2054467;86;27681;-61
2022/04/11 02:36:11;;;;;;;9.03;5.90;;;;;;;0.63;70.13;100652.20;2054360;86;29115;-66
2022/04/11 02:39:12;;;;;;;11.60;6.45;;;;;;;0.59;70.19;100659.22;2033332;87;32289;-60
2022/04/11 02:42:25;;;;;;;9.60;7.15;;;;;;;0.57;70.44;100657.48;2056090;86;33399;-62
2022/04/11 02:45:27;;;;;;;11.35;6.87;;;;;;;0.58;70.55;100657.91;2056218;86;29681;-61
2022/04/11 02:48:28;;;;;;;9.28;7.03;;;;;;;0.58;70.73;100652.64;2054312;86;27602;-60
2022/04/11 02:51:30;;;;;;;14.45;8.40;;;;;;;0.59;70.86;100656.58;2055830;86;30084;-61
2022/04/11 02:54:32;;;;;;;11.10;7.78;;;;;;;0.61;71.02;100652.64;2055201;86;31328;-62
2022/04/11 02:57:36;;;;;;;15.93;8.83;;;;;;;0.65;71.15;100653.08;2054669;86;34102;-61
2022/04/11 03:00:37;;;;;;;13.38;7.97;;;;;;;0.68;71.34;100650.86;2053864;86;30178;-61
2022/04/11 03:03:39;;;;;;;14.20;8.53;;;;;;;0.71;71.32;100660.08;2054461;86;27729;-63
2022/04/11 03:06:41;;;;;;;12.30;7.92;;;;;;;0.72;71.37;100656.56;2055717;86;28672;-61
2022/04/11 03:09:43;;;;;;;12.23;8.18;;;;;;;0.73;71.45;100661.82;2054538;86;30983;-60
2022/04/11 03:12:44;;;;;;;15.40;8.50;;;;;;;0.78;71.53;100653.03;2053800;86;33159;-60
2022/04/11 03:15:47;;;;;;;15.40;8.05;;;;;;;0.82;71.71;100658.28;2054642;86;30019;-60
2022/04/11 03:18:49;;;;;;;12.82;7.92;;;;;;;0.88;71.87;100658.69;2077066;84;27648;-61
2022/04/11 03:21:51;;;;;;;13.38;7.53;;;;;;;0.96;72.01;100659.98;2075504;85;29248;-63
2022/04/11 03:24:53;;;;;;;13.45;7.55;;;;;;;1.02;72.02;100663.46;2054923;86;32310;-61
2022/04/11 03:27:55;;;;;;;12.55;7.42;;;;;;;1.12;72.08;100655.52;2055124;86;33871;-62
2022/04/11 03:30:57;;;;;;;13.38;7.37;;;;;;;1.21;72.21;100662.95;2066758;86;30611;-60
2022/04/11 03:33:59;;;;;;;15.30;8.33;;;;;;;1.31;72.30;100669.48;2068160;86;27713;-60
2022/04/11 03:37:02;;;;;;;16.00;7.70;;;;;;;1.41;72.27;100672.95;2067911;86;29986;-61
2022/04/11 03:40:07;;;;;;;14.87;8.78;;;;;;;1.51;72.32;100675.96;2068197;86;31145;-60
2022/04/11 03:43:09;;;;;;;15.58;8.43;;;;;;;1.59;72.32;100670.63;2066058;86;33748;-62
2022/04/11 03:46:12;;;;;;;15.05;8.38;;;;;;;1.69;72.30;100662.20;2055354;86;30540;-61
2022/04/11 03:49:14;;;;;;;14.78;7.90;;;;;;;1.78;72.34;100670.08;2059551;86;27692;-62
2022/04/11 03:52:16;;;;;;;15.65;8.53;;;;;;;1.85;72.30;100667.80;2067943;86;29692;-60
2022/04/11 03:55:18;;;;;;;14.90;8.18;;;;;;;1.93;72.24;100664.67;2066380;86;32322;-60
2022/04/11 03:58:19;;;;;;;10.90;8.13;;;;;;;2.00;72.21;100664.17;2068169;86;33309;-60
2022/04/11 04:01:21;;;;;;;15.25;8.30;;;;;;;2.07;72.17;100661.03;2064988;86;30545;-61
2022/04/11 04:04:23;;;;;;;15.23;8.73;;;;;;;2.12;72.13;100661.42;2068461;86;27615;-60
2022/04/11 04:07:25;;;;;;;9.45;7.12;;;;;;;2.19;72.11;100670.63;2065686;86;28798;-63
2022/04/11 04:10:27;;;;;;;11.50;7.45;;;;;;;2.24;71.96;100668.80;2072456;85;32019;-61
2022/04/11 04:13:28;;;;;;;11.45;7.78;;;;;;;2.31;72.00;100673.61;2072057;85;32972;-60
2022/04/11 04:16:30;;;;;;;13.40;8.65;;;;;;;2.35;71.92;100681.91;2074766;84;29761;-64
2022/04/11 04:19:32;;;;;;;17.35;9.03;;;;;;;2.40;71.95;100675.69;2075487;84;28264;-61
2022/04/11 04:22:36;;;;;;;15.68;8.63;;;;;;;2.46;71.89;100685.35;2066368;85;29960;-64
2022/04/11 04:25:38;;;;;;;17.77;8.10;;;;;;;2.51;71.89;100686.62;2015557;88;32298;-62
2022/04/11 04:28:40;;;;;;;13.80;7.83;;;;;;;2.56;71.72;100692.75;2015450;88;33382;-67
2022/04/11 04:31:41;;;;;;;13.38;8.38;;;;;;;2.59;71.73;100694.02;2030766;87;29796;-61
2022/04/11 04:34:44;;;;;;;22.15;9.10;;;;;;;2.64;71.64;100699.28;2056005;86;27726;-65
2022/04/11 04:37:45;;;;;;;16.25;7.80;;;;;;;2.69;71.56;100708.92;2056031;86;28643;-67
2022/04/11 04:40:47;;;;;;;12.23;7.60;;;;;;;2.73;71.58;100707.11;2054859;86;31008;-63
2022/04/11 04:43:51;;;;;;;18.05;8.30;;;;;;;2.79;71.55;100714.09;2024824;86;34209;-62
2022/04/11 04:46:54;;;;;;;16.23;8.60;;;;;;;2.85;71.55;100713.58;2050710;86;30203;-62
2022/04/11 04:49:56;;;;;;;18.05;9.35;;;;;;;2.93;71.59;100715.28;2055323;86;27616;-61
2022/04/11 04:52:59;;;;;;;20.72;8.50;;;;;;;3.01;71.55;100716.95;2053651;86;29925;-62
2022/04/11 04:56:00;;;;;;;18.92;9.08;;;;;;;3.08;71.59;100721.72;2053684;86;31458;-61
2022/04/11 04:59:02;;;;;;;14.85;8.00;;;;;;;3.16;71.55;100718.51;2053866;86;33083;-61
2022/04/11 05:02:05;;;;;;;20.15;7.62;;;;;;;3.24;71.41;100721.06;2024690;86;30014;-63
2022/04/11 05:05:10;;;;;;;17.17;8.40;;;;;;;3.32;71.38;100715.23;2054243;86;27652;-62
2022/04/11 05:08:12;;;;;;;12.40;6.93;;;;;;;3.45;71.46;100715.96;2054429;86;28637;-61
2022/04/11 05:11:15;;;;;;;18.95;6.83;;;;;;;3.59;71.34;100716.21;2053799;86;31055;-63
2022/04/11 05:14:18;;;;;;;17.40;6.58;;;;;;;3.77;71.16;100717.70;2053666;86;33010;-60
2022/04/11 05:17:22;;;;;;;11.95;6.10;;;;;;;3.93;71.03;100715.25;2054865;86;30201;-60
2022/04/11 05:20:25;;;;;;;13.20;6.60;;;;;;;4.15;70.98;100715.35;2049999;86;27852;-62
2022/04/11 05:23:27;;;;;;;11.65;6.10;;;;;;;4.34;70.60;100718.13;2054249;85;29176;-61
2022/04/11 05:26:29;;;;;;;14.75;5.78;;;;;;;4.51;70.56;100718.28;2055610;86;32309;-61
2022/04/11 05:29:31;;;;;;;13.25;6.65;;;;;;;4.65;70.29;100715.39;2055354;86;33762;-61
2022/04/11 05:32:35;;;;;;;17.48;5.35;;;;;;;4.75;70.01;100722.73;2044658;86;30649;-61
2022/04/11 05:35:38;;;;;;;13.60;6.35;;;;;;;4.83;69.83;100731.41;2021163;88;27637;-66
2022/04/11 05:38:41;;;;;;;12.10;7.05;;;;;;;4.92;69.73;100727.27;2021195;87;29523;-61
2022/04/11 05:41:43;;;;;;;12.45;5.87;;;;;;;5.01;69.52;100728.87;2016290;87;31817;-62
2022/04/11 05:44:46;;;;;;;15.60;6.35;;;;;;;5.12;69.54;100729.99;2055812;86;33162;-61
2022/04/11 05:47:49;;;;;;;8.95;5.33;;;;;;;5.29;69.27;100726.54;2053975;86;30287;-62
2022/04/11 05:50:51;;;;;;;11.05;4.70;;;;;;;5.50;69.08;100732.28;2054354;86;27736;-64
2022/04/11 05:53:54;;;;;;;11.83;3.95;;;;;;;5.65;68.78;100731.08;2054267;86;29344;-61
2022/04/11 05:56:57;;;;;;;10.72;4.50;;;;;;;5.77;68.33;100730.80;2036393;86;32246;-61
2022/04/11 06:00:00;;;;;;;12.47;4.45;;;;;;;5.87;68.19;100735.92;2021156;87;33739;-62
2022/04/11 06:03:03;;;;;;;10.72;4.05;;;;;;;5.97;68.02;100745.42;2052635;86;29432;-61
2022/04/11 06:06:06;;;;;;;8.73;4.42;;;;;;;6.02;67.75;100738.69;2054572;86;27713;-62
2022/04/11 06:09:09;;;;;;;7.03;4.58;;;;;;;6.16;67.70;100737.05;2053975;86;28675;-61
2022/04/11 06:12:12;;;;;;;8.73;4.20;;;;;;;6.29;67.38;100739.81;2053859;86;31177;-62
2022/04/11 06:15:17;;;;;;;14.15;4.70;;;;;;;6.43;67.27;100740.81;2048803;86;33052;-62
2022/04/11 06:18:19;;;;;;;11.70;4.10;;;;;;;6.61;67.10;100733.27;2040387;86;29349;-62
2022/04/11 06:21:22;;;;;;;10.58;4.35;;;;;;;6.84;66.85;100744.63;2049484;86;27679;-62
2022/04/11 06:24:24;;;;;;;16.45;4.80;;;;;;;7.06;66.67;100738.69;2049773;86;29474;-62
2022/04/11 06:27:28;;;;;;;9.95;4.42;;;;;;;7.28;65.94;100736.31;2054861;86;31736;-62
2022/04/11 06:30:30;;;;;;;8.08;3.33;;;;;;;7.52;65.87;100737.38;2055411;86;33001;-62
2022/04/11 06:33:32;;;;;;;16.55;5.33;;;;;;;7.79;65.23;100742.78;2054790;86;30077;-66
2022/04/11 06:36:36;;;;;;;8.48;4.05;;;;;;;8.05;65.04;100739.30;2055342;86;27635;-62
2022/04/11 06:39:39;;;;;;;7.22;3.80;;;;;;;8.28;64.60;100738.13;2053894;86;30079;-62
2022/04/11 06:42:42;;;;;;;9.18;3.60;;;;;;;8.44;63.97;100744.70;2054267;86;31073;-62
2022/04/11 06:45:53;;;;;;;8.23;3.25;;;;;;;8.69;63.65;100736.35;2054222;86;33663;-63
2022/04/11 06:48:56;;;;;;;10.23;3.10;;;;;;;8.86;62.94;100733.96;2034624;86;30261;-63
2022/04/11 06:51:58;;;;;;;13.68;4.20;;;;;;;9.12;62.62;100736.14;2055054;86;28399;-68
2022/04/11 06:55:01;;;;;;;10.48;3.05;;;;;;;9.61;62.82;100729.42;2055235;86;29438;-62
2022/04/11 06:58:03;;;;;;;8.13;4.17;;;;;;;10.32;62.41;100727.05;2054151;86;32474;-63
2022/04/11 07:01:05;;;;;;;10.98;3.42;;;;;;;11.19;61.79;100724.69;2053869;86;34028;-64
2022/04/11 07:04:07;;;;;;;9.15;3.72;;;;;;;12.10;60.69;100722.23;2047640;86;29919;-63
2022/04/11 07:07:09;;;;;;;7.75;2.90;;;;;;;12.86;60.06;100718.41;2047393;86;27591;-66
2022/04/11 07:10:11;;;;;;;6.53;2.92;;;;;;;13.15;58.42;100718.70;2047604;86;30011;-65
2022/04/11 07:13:13;;;;;;;6.55;2.58;;;;;;;13.14;57.79;100723.69;2049488;86;31462;-64
2022/04/11 07:16:14;;;;;;;9.60;2.62;;;;;;;13.43;57.19;100723.95;2050337;85;34086;-65
2022/04/11 07:19:17;;;;;;;8.85;3.00;;;;;;;13.66;56.09;100724.02;2065609;85;30680;-64
2022/04/11 07:22:22;;;;;;;5.83;3.08;;;;;;;13.48;55.03;100721.89;2091791;85;27661;-65
2022/04/11 07:25:24;;;;;;;7.78;2.75;;;;;;;13.31;55.46;100722.30;2069490;85;29547;-64
2022/04/11 07:28:26;;;;;;;7.42;3.22;;;;;;;13.72;54.79;100719.65;2074278;85;31617;-65
2022/04/11 07:31:29;;;;;;;5.47;2.40;;;;;;;14.02;54.56;100719.32;2074678;84;33645;-64
2022/04/11 07:34:31;;;;;;;11.35;2.72;;;;;;;14.38;54.45;100720.84;2074213;85;30559;-62
2022/04/11 07:37:33;;;;;;;8.03;2.60;;;;;;;14.81;53.28;100722.83;2074064;85;27675;-64
2022/04/11 07:40:36;;;;;;;6.87;2.72;;;;;;;15.17;52.76;100720.18;2077201;84;29491;-62
2022/04/11 07:43:38;;;;;;;7.15;2.80;;;;;;;15.58;52.21;100715.33;2080877;84;31897;-65
2022/04/11 07:46:40;;;;;;;5.25;2.33;;;;;;;16.08;51.47;100723.86;2103894;84;34145;-65
2022/04/11 07:49:41;;;;;;;5.83;2.42;;;;;;;16.40;50.42;100722.66;2101274;84;29261;-64
2022/04/11 07:52:44;;;;;;;5.67;2.35;;;;;;;16.25;49.76;100730.83;2107250;84;27666;-64
2022/04/11 07:55:46;;;;;;;6.03;2.30;;;;;;;16.30;49.45;100722.91;2106967;84;29549;-65
2022/04/11 07:58:47;;;;;;;8.33;2.60;;;;;;;16.44;49.08;100717.93;2079616;84;31387;-68
2022/04/11 08:01:49;;;;;;;6.85;2.33;;;;;;;16.80;48.50;100721.30;2074068;85;33734;-66
2022/04/11 08:04:50;;;;;;;5.80;2.35;;;;;;;17.19;47.34;100717.28;2079953;84;29687;-67
2022/04/11 08:07:52;;;;;;;7.17;1.90;;;;;;;17.61;47.19;100715.66;2086268;84;27717;-66
2022/04/11 08:10:56;;;;;;;6.53;1.85;;;;;;;18.07;46.26;100725.84;2073772;84;29938;-65
2022/04/11 08:13:57;;;;;;;4.92;2.05;;;;;;;18.55;45.81;100718.66;2091974;84;32268;-66
2022/04/11 08:17:02;;;;;;;4.58;1.70;;;;;;;18.80;44.96;100722.22;2100004;84;33098;-66
2022/04/11 08:20:04;;;;;;;3.87;1.70;;;;;;;18.43;43.94;100724.56;2073520;85;29742;-67
2022/04/11 08:23:06;;;;;;;7.00;1.90;;;;;;;17.93;43.36;100734.11;2105046;84;27804;-64
2022/04/11 08:26:07;;;;;;;3.45;1.92;;;;;;;17.55;42.91;100729.17;2106842;84;29634;-64
2022/04/11 08:29:09;;;;;;;4.62;2.00;;;;;;;17.16;43.08;100729.67;2097935;84;32255;-67
2022/04/11 08:32:12;;;;;;;2.80;2.10;;;;;;;16.79;42.54;100733.59;2079779;85;33356;-64
2022/04/11 08:35:15;;;;;;;6.00;1.75;;;;;;;16.38;43.16;100738.14;2106552;84;29689;-63
2022/04/11 08:38:17;;;;;;;6.00;2.02;;;;;;;16.13;43.05;100740.27;2088562;84;27545;-65
2022/04/11 08:41:19;;;;;;;5.70;2.45;;;;;;;15.99;42.74;100743.36;2077654;84;29905;-69
2022/04/11 08:44:21;;;;;;;5.35;1.80;;;;;;;16.15;42.28;100745.05;2070394;84;32234;-65
2022/04/11 08:47:23;;;;;;;4.33;1.67;;;;;;;16.25;41.63;100743.00;2047202;85;33614;-64
2022/04/11 08:50:25;;;;;;;3.30;1.87;;;;;;;16.32;41.82;100739.89;2074294;85;29098;-65
2022/04/11 08:53:27;;;;;;;5.92;1.90;;;;;;;16.50;41.92;100738.66;2046048;85;27689;-66
2022/04/11 08:56:29;;;;;;;5.35;2.37;;;;;;;16.37;41.23;100738.61;2075871;84;29286;-63
2022/04/11 08:59:34;;;;;;;5.75;1.85;;;;;;;16.18;41.65;100741.69;2100818;84;32019;-65
2022/04/11 09:02:36;;;;;;;5.30;1.92;;;;;;;15.83;41.23;100743.95;2098320;84;34133;-66
2022/04/11 09:05:37;;;;;;;4.12;2.17;;;;;;;15.47;40.86;100751.11;2093379;84;30273;-65
2022/04/11 09:08:50;;;;;;;5.35;2.60;;;;;;;15.10;40.90;100752.55;2077738;84;28175;-64
2022/04/11 09:11:52;;;;;;;7.00;2.10;;;;;;;14.73;41.07;100752.95;2098776;84;29068;-63
2022/04/11 09:14:56;;;;;;;5.67;1.80;;;;;;;14.39;41.29;100748.18;2035803;87;31555;-63
2022/04/11 09:18:00;;;;;;;3.08;1.45;;;;;;;14.14;41.39;100753.66;2036028;86;32987;-64
2022/04/11 09:21:02;;;;;;;5.92;1.80;;;;;;;13.96;41.08;100754.22;2033880;87;30003;-63
2022/04/11 09:24:17;;;;;;;5.08;1.98;;;;;;;13.82;41.11;100754.98;2032977;87;27624;-71
2022/04/11 09:27:25;;;;;;;4.62;2.17;;;;;;;13.71;41.49;100759.64;2047220;86;28667;-66
2022/04/11 09:30:31;;;;;;;5.65;2.35;;;;;;;13.47;41.34;100757.34;2049515;86;31157;-63
2022/04/11 09:33:38;;;;;;;5.00;2.50;;;;;;;13.19;41.57;100760.14;2046094;87;33024;-65
2022/04/11 09:36:54;;;;;;;7.60;2.22;;;;;;;13.02;41.81;100756.98;2046650;86;29339;-63
2022/04/11 09:39:59;;;;;;;7.17;2.00;;;;;;;12.98;41.97;100751.86;2045769;86;27701;-63
2022/04/11 09:43:01;;;;;;;4.33;1.65;;;;;;;13.09;42.18;100751.30;2041439;86;28646;-65
2022/04/11 09:46:04;;;;;;;5.15;2.00;;;;;;;13.14;41.52;100745.20;2050513;86;30782;-63
2022/04/11 09:49:06;;;;;;;5.35;1.52;;;;;;;13.19;41.85;100746.70;2053643;86;33833;-62
2022/04/11 09:52:14;;;;;;;7.33;2.67;;;;;;;13.27;41.80;100740.90;2031670;86;29469;-64
2022/04/11 09:55:17;;;;;;;3.62;1.70;;;;;;;13.25;40.66;100740.11;2056163;86;27729;-62
2022/04/11 09:58:23;;;;;;;2.83;1.65;;;;;;;13.10;41.23;100735.55;2044572;86;29883;-64
2022/04/11 10:01:25;;;;;;;3.77;1.80;;;;;;;12.94;40.89;100735.02;2051496;86;31065;-64
2022/04/11 10:04:28;;;;;;;5.35;1.98;;;;;;;12.78;40.52;100731.40;2052694;86;32740;-63
2022/04/11 10:07:31;;;;;;;6.47;1.80;;;;;;;12.69;40.78;100731.40;2055598;86;30490;-66
2022/04/11 10:10:37;;;;;;;2.47;1.42;;;;;;;12.65;41.12;100725.32;2039410;86;27727;-63
2022/04/11 10:13:39;;;;;;;7.83;1.60;;;;;;;12.74;41.23;100723.98;2000116;89;28655;-66
2022/04/11 10:16:44;;;;;;;3.98;1.95;;;;;;;12.76;40.95;100725.63;2008156;86;31030;-63
2022/04/11 10:19:48;;;;;;;5.87;1.60;;;;;;;12.81;40.95;100721.34;2056401;85;32923;-66
2022/04/11 10:23:11;;;;;;;5.72;2.75;;;;;;;12.86;41.10;100722.44;2067826;86;29417;-64
2022/04/11 10:26:18;;;;;;;7.22;2.58;;;;;;;12.96;41.57;100716.98;2065983;86;27698;-60
2022/04/11 10:29:39;;;;;;;6.08;3.50;;;;;;;13.31;41.91;100713.34;2049964;86;28861;-61
2022/04/11 10:32:55;;;;;;;2.83;1.30;;;;;;;13.54;40.41;100705.88;2074397;84;32215;-59
2022/04/11 10:35:57;;;;;;;4.50;1.50;;;;;;;13.54;40.02;100712.59;2069084;84;32983;-61
2022/04/11 10:39:19;;;;;;;3.45;1.30;;;;;;;13.47;40.17;100708.89;2069993;85;30584;-61
2022/04/11 10:42:24;;;;;;;4.58;1.85;;;;;;;13.56;39.98;100706.66;2068053;86;27707;-61
2022/04/11 10:45:35;;;;;;;5.87;1.65;;;;;;;13.77;40.63;100707.27;2070513;85;28689;-60
2022/04/11 10:49:05;;;;;;;6.20;1.92;;;;;;;14.05;40.84;100695.78;2069648;84;31886;-61
2022/04/11 10:52:34;;;;;;;5.58;1.75;;;;;;;14.44;40.14;100697.08;2067156;86;33754;-64
2022/04/11 10:55:56;;;;;;;4.58;1.70;;;;;;;14.78;39.66;100700.08;2059078;86;29218;-62
2022/04/11 10:58:57;;;;;;;3.72;1.70;;;;;;;14.85;39.15;100692.87;2052662;85;27773;-68
2022/04/11 11:02:00;;;;;;;3.02;1.72;;;;;;;14.92;39.00;100699.25;2071477;85;29868;-61
2022/04/11 11:05:25;;;;;;;6.45;3.42;;;;;;;14.80;38.49;100704.44;2071834;85;31686;-61
2022/04/11 11:08:32;;;;;;;4.08;1.17;;;;;;;14.55;38.52;100713.97;2058344;85;34178;-61
2022/04/11 11:11:34;;;;;;;4.28;1.50;;;;;;;14.19;37.65;100709.78;2071725;85;29337;-61
2022/04/11 11:14:40;;;;;;;4.85;2.37;;;;;;;13.85;37.95;100706.34;2078106;84;27745;-61
2022/04/11 11:17:58;;;;;;;6.35;2.90;;;;;;;13.72;38.59;100703.50;2068780;85;28570;-60
2022/04/11 11:21:00;;;;;;;4.58;1.47;;;;;;;13.77;38.89;100701.39;2075679;84;31679;-63
2022/04/11 11:24:12;;;;;;;5.08;1.70;;;;;;;13.90;38.54;100702.06;2102793;84;33056;-62
2022/04/11 11:27:15;;;;;;;4.95;2.25;;;;;;;13.89;38.64;100698.48;2067933;85;30314;-62
2022/04/11 11:30:17;;;;;;;3.85;2.52;;;;;;;13.82;38.46;100706.51;2091966;84;27592;-62
2022/04/11 11:33:19;;;;;;;5.47;4.10;;;;;;;13.71;38.48;100698.17;2092723;84;29060;-61
2022/04/11 11:36:29;;;;;;;3.92;2.00;;;;;;;13.59;38.59;100700.61;2069390;85;32214;-62
2022/04/11 11:39:35;;;;;;;4.72;2.33;;;;;;;13.52;38.63;100691.13;2067091;85;34007;-61
2022/04/11 11:42:38;;;;;;;4.15;1.82;;;;;;;13.54;39.10;100689.22;2069727;85;30300;-64
2022/04/11 11:45:41;;;;;;;9.88;1.45;;;;;;;13.69;39.41;100684.81;2085335;84;28288;-63
2022/04/11 11:48:43;;;;;;;3.30;1.75;;;;;;;13.89;39.12;100676.94;2073948;84;29615;-62
2022/04/11 11:51:46;;;;;;;6.47;2.77;;;;;;;14.05;38.72;100669.31;2071765;84;31599;-61
2022/04/11 11:54:51;;;;;;;8.83;3.58;;;;;;;14.08;38.60;100676.73;2071014;85;32445;-62
2022/04/11 11:58:06;;;;;;;29.48;11.85;;;;;;;14.22;37.99;100673.73;2078770;84;28805;-62
2022/04/11 12:01:13;;;;;;;8.70;3.30;;;;;;;14.37;36.98;100680.02;2077734;84;27671;-63
2022/04/11 12:04:19;;;;;;;4.20;2.50;;;;;;;14.42;36.98;100663.95;2104614;84;28106;-65
2022/04/11 12:07:21;;;;;;;3.40;1.72;;;;;;;14.56;37.02;100670.36;2067370;84;32245;-62
2022/04/11 12:10:23;;;;;;;11.85;5.45;;;;;;;14.60;36.73;100659.75;2067908;86;33528;-62
2022/04/11 12:13:32;;;;;;;20.25;9.90;;;;;;;14.32;37.05;100692.42;2068688;86;29691;-62
2022/04/11 12:16:37;;;;;;;3.17;2.27;;;;;;;14.32;37.05;100692.42;2068061;85;27710;-62
2022/04/11 12:19:38;;;;;;;;;;;;;;;14.13;37.62;100685.42;2072817;86;29556;-61
2022/04/11 12:22:47;;;;;;;11.93;7.28;;;;;;;13.95;36.83;100688.72;2080067;84;31136;-61
2022/04/11 12:25:52;;;;;;;5.92;3.20;;;;;;;13.75;37.30;100694.36;2061159;85;33009;-61
2022/04/11 12:28:54;;;;;;;;;;;;;;;13.55;37.84;100684.73;2069617;85;30204;-63
2022/04/11 12:32:03;;;;;;;6.17;3.25;;;;;;;13.42;38.37;100680.50;2072115;85;27694;-65
2022/04/11 12:35:18;;;;;;;2.42;1.40;;;;;;;13.40;38.57;100672.52;2068776;84;28651;-63
2022/04/11 12:38:48;;;;;;;5.92;2.25;;;;;;;13.51;39.03;100667.40;2069536;85;31298;-62
2022/04/11 12:41:49;;;;;;;3.72;1.60;;;;;;;13.73;38.49;100659.45;2075053;84;33624;-62
2022/04/11 12:45:07;;;;;;;5.80;2.33;;;;;;;13.82;38.66;100658.03;2066040;86;30626;-62
2022/04/11 12:48:09;;;;;;;3.30;1.95;;;;;;;13.83;37.79;100640.45;2070251;86;27716;-62
2022/04/11 12:51:13;;;;;;;3.72;2.30;;;;;;;13.70;37.60;100640.78;2067782;86;28635;-61
2022/04/11 12:54:16;;;;;;;3.47;1.62;;;;;;;13.60;37.61;100643.59;2067377;85;32022;-62
2022/04/11 12:57:25;;;;;;;6.58;3.50;;;;;;;13.49;37.35;100642.84;2038581;87;32962;-61
2022/04/11 13:00:29;;;;;;;4.10;2.45;;;;;;;13.38;37.11;100635.38;2049683;86;30824;-61
2022/04/11 13:03:31;;;;;;;2.42;1.30;;;;;;;13.26;37.83;100620.77;2068731;86;27625;-61
2022/04/11 13:06:33;;;;;;;6.00;3.52;;;;;;;13.23;37.22;100614.21;2070084;85;29067;-62
2022/04/11 13:09:38;;;;;;;5.08;2.02;;;;;;;13.18;37.37;100614.48;2071125;85;31668;-62
2022/04/11 13:12:40;;;;;;;5.37;2.30;;;;;;;13.18;37.17;100610.90;2069495;85;35370;-62
2022/04/11 13:19:02;;;;;;;5.33;2.98;;;;;;;13.18;36.48;100613.59;2093728;84;27693;-64
2022/04/11 13:22:06;;;;;;;9.13;5.53;;;;;;;13.14;36.11;100608.87;2071691;84;28702;-62
2022/04/11 13:25:09;;;;;;;13.32;8.30;;;;;;;13.16;36.31;100604.27;2062967;85;31845;-62
2022/04/11 13:28:11;;;;;;;3.20;1.70;;;;;;;13.23;36.92;100599.42;2055286;86;34179;-62
2022/04/11 13:31:13;;;;;;;7.83;3.67;;;;;;;13.30;37.04;100595.91;2062301;86;30237;-63
2022/04/11 13:34:14;;;;;;;5.85;2.72;;;;;;;13.36;36.89;100590.19;2093545;84;27723;-62
2022/04/11 13:37:17;;;;;;;4.70;2.40;;;;;;;13.42;37.01;100592.54;2071575;85;29384;-62
2022/04/11 13:40:19;;;;;;;8.00;3.80;;;;;;;13.52;36.87;100588.39;2073680;85;31916;-63
2022/04/11 13:43:21;;;;;;;4.12;1.70;;;;;;;13.68;36.95;100590.19;2072439;85;34298;-62
2022/04/11 13:46:23;;;;;;;5.78;1.85;;;;;;;13.77;36.79;100582.91;2075266;84;30048;-63
2022/04/11 13:49:25;;;;;;;4.95;1.65;;;;;;;13.93;36.76;100584.70;2070798;86;27763;-62
2022/04/11 13:52:27;;;;;;;3.25;1.52;;;;;;;14.08;36.86;100585.63;2070684;85;28757;-62
2022/04/11 13:55:30;;;;;;;3.30;1.80;;;;;;;14.22;36.75;100590.19;2072857;85;31222;-62
2022/04/11 13:58:33;;;;;;;3.08;1.77;;;;;;;14.23;36.16;100588.73;2072199;85;33778;-64
2022/04/11 14:01:38;;;;;;;3.05;1.32;;;;;;;14.26;35.88;100585.86;2073605;85;30114;-63
2022/04/11 14:04:40;;;;;;;4.67;2.20;;;;;;;14.17;35.62;100582.36;2072963;85;27643;-63
2022/04/11 14:07:42;;;;;;;4.90;1.65;;;;;;;14.04;35.37;100580.02;2073981;85;29984;-62
2022/04/11 14:10:44;;;;;;;2.80;1.62;;;;;;;13.88;35.96;100579.59;2072231;85;31029;-61
2022/04/11 14:13:47;;;;;;;4.60;1.75;;;;;;;13.84;36.04;100573.98;2072923;85;33879;-63
2022/04/11 14:16:49;;;;;;;3.72;1.72;;;;;;;13.93;36.33;100576.61;2072172;85;30641;-62
2022/04/11 14:19:51;;;;;;;4.12;2.25;;;;;;;13.98;36.37;100570.48;2071900;85;27618;-61